Flag for New Zealand

Past Weather in Wellington, New Zealand — Yesterday and Last 2 Weeks

Currently: 64 °F. Passing clouds. (Weather station: Wellington Airport, New Zealand). See more current weather

Past Weather in Wellington — Graph

°F

Wellington Temperature Yesterday

Maximum temperature yesterday: 68 °F (at 6:00 pm)
Minimum temperature yesterday: 57 °F (at 12:00 am)
Average temperature yesterday: 61 °F

High & Low Weather Summary for the Past Weeks

 TemperatureHumidityPressure
High77 °F (Jan 13, 2:30 pm)100% (Jan 7, 8:30 pm)30.18 "Hg (Jan 7, 8:30 pm)
Low52 °F (Jan 22, 6:30 am)43% (Jan 18, 1:00 pm)29.27 "Hg (Jan 19, 6:00 pm)
Average64 °F73%29.75 "Hg
* Reported Jan 7 7:00 pm — Jan 22 7:30 pm, Wellington. Weather by CustomWeather, © 2021

Note: Actual official high and low records may vary slightly from our data, if they occured in-between our weather recording intervals... More about our weather records

Wellington Weather History for the Previous 24 Hours

Scroll right to see more
 ConditionsComfort  
Time TempWeatherWind HumidityBarometerVisibility
7:30 pm
Fri, Jan 22
64 °FPassing clouds.17 mph64%29.77 "HgN/A
7:00 pm66 °FPassing clouds.17 mph64%29.77 "HgN/A
6:30 pm66 °FMild.22 mph64%29.77 "HgN/A
6:00 pm68 °FMild.20 mph60%29.77 "HgN/A
5:30 pm68 °FMild.21 mph56%29.77 "HgN/A
5:00 pm68 °FMild.24 mph49%29.77 "HgN/A
4:30 pm70 °FMild.23 mph46%29.77 "HgN/A
4:00 pm70 °FMild.20 mph43%29.77 "HgN/A
3:30 pm70 °FMild.21 mph43%29.77 "HgN/A
3:00 pm70 °FMild.18 mph46%29.77 "HgN/A
2:30 pm70 °FMild.17 mph50%29.77 "HgN/A
2:00 pm70 °FPassing clouds.17 mph50%29.77 "HgN/A
1:30 pm68 °FMild.17 mph53%29.77 "HgN/A
12:30 pm66 °FMild.17 mph52%29.77 "HgN/A
12:00 pm68 °FPassing clouds.15 mph53%29.77 "HgN/A
11:30 am68 °FPassing clouds.17 mph56%29.77 "HgN/A
11:00 am68 °FScattered clouds.16 mph53%29.77 "HgN/A
10:30 am68 °FScattered clouds.12 mph53%29.74 "HgN/A
10:00 am64 °FMild.8 mph68%29.77 "HgN/A
9:30 am63 °FMild.7 mph68%29.77 "HgN/A
9:00 am61 °FCool.6 mph72%29.74 "HgN/A
8:30 am59 °FCool.7 mph77%29.74 "HgN/A
8:00 am57 °FCool.9 mph82%29.74 "HgN/A
7:30 am55 °FCool.8 mph82%29.74 "HgN/A
7:00 am54 °FCool.7 mph88%29.71 "HgN/A
6:30 am52 °FCool.3 mph94%29.71 "HgN/A
6:00 am54 °FCool.7 mph88%29.68 "HgN/A
5:30 am54 °FCool.6 mph88%29.68 "HgN/A
5:00 am54 °FCool.6 mph88%29.68 "HgN/A
4:30 am54 °FCool.5 mph88%29.65 "HgN/A
4:00 am54 °FCool.5 mph88%29.65 "HgN/A
3:30 am54 °FCool.2 mph82%29.65 "HgN/A
3:00 am55 °FCool.1 mph82%29.65 "HgN/A
2:30 am55 °FCool.2 mph77%29.65 "HgN/A
2:00 am55 °FCool.3 mph77%29.62 "HgN/A
1:30 am57 °FPassing clouds.2 mph72%29.62 "HgN/A
1:00 am57 °FPassing clouds.3 mph72%29.62 "HgN/A
12:30 am59 °FOvercast.3 mph72%29.62 "HgN/A
12:00 am59 °FPassing clouds.3 mph77%29.59 "HgN/A
11:30 pm
Thu, Jan 21
59 °FLight rain. Passing clouds.5 mph68%29.59 "HgN/A
11:00 pm59 °FPartly cloudy.6 mph68%29.59 "HgN/A
10:30 pm59 °FPassing clouds.14 mph68%29.59 "HgN/A
10:00 pm61 °FMostly cloudy.12 mph72%29.56 "HgN/A
9:30 pm61 °FMostly cloudy.12 mph77%29.53 "HgN/A
9:00 pm61 °FOvercast.16 mph83%29.50 "HgN/A
8:30 pm63 °FMostly cloudy.14 mph68%29.47 "HgN/A
8:00 pm66 °FScattered clouds.9 mph56%29.45 "HgN/A
Weather by CustomWeather, © 2021

See weather overview